createdAt,value
2022-08-05T00:01:27.678Z,101127.59
2022-08-05T00:04:33.629Z,101134.38
2022-08-05T00:08:00.409Z,101134.69
2022-08-05T00:11:02.710Z,101135.84
2022-08-05T00:14:12.639Z,101138.97
2022-08-05T00:17:20.831Z,101146.59
2022-08-05T00:20:29.053Z,101145.72
2022-08-05T00:23:46.288Z,101147.41
2022-08-05T00:26:51.937Z,101146.91
2022-08-05T00:29:56.346Z,101153.34
2022-08-05T00:33:00.355Z,101156.16
2022-08-05T00:36:16.487Z,101148.03
2022-08-05T00:39:36.941Z,101146.34
2022-08-05T00:42:49.075Z,101161.56
2022-08-05T00:45:54.088Z,101159.06
2022-08-05T00:48:58.189Z,101148.66
2022-08-05T00:52:03.646Z,101154.28
2022-08-05T00:55:08.062Z,101159.06
2022-08-05T00:58:14.189Z,101171.16
2022-08-05T01:01:24.935Z,101185.53
2022-08-05T01:04:42.333Z,101200.72
2022-08-05T01:08:41.029Z,101197.06
2022-08-05T01:11:22.516Z,101195.06
2022-08-05T01:14:36.339Z,101194.25
2022-08-05T01:17:47.161Z,101186.94
2022-08-05T01:21:09.120Z,101196.53
2022-08-05T01:24:34.441Z,101188.09
2022-08-05T01:28:17.044Z,101177.97
2022-08-05T01:31:27.836Z,101206.94
2022-08-05T01:34:36.198Z,101215.69
2022-08-05T01:37:46.317Z,101204.44
2022-08-05T01:40:51.356Z,101203.59
2022-08-05T01:43:58.118Z,101195.47
2022-08-05T01:47:05.207Z,101181.41
2022-08-05T01:50:14.268Z,101155.25
2022-08-05T01:53:57.605Z,101135.88
2022-08-05T01:58:29.495Z,101128.59
2022-08-05T02:00:15.427Z,101110.06
2022-08-05T02:03:31.253Z,101113.69
2022-08-05T02:06:38.176Z,101116.81
2022-08-05T02:09:42.533Z,101121.91
2022-08-05T02:12:54.637Z,101116.28
2022-08-05T02:16:05.439Z,101115.47
2022-08-05T02:19:15.589Z,101123.06
2022-08-05T02:22:26.700Z,101124.22
2022-08-05T02:25:50.121Z,101116.91
2022-08-05T02:28:58.117Z,101111.28
2022-08-05T02:32:05.340Z,101123.69
2022-08-05T02:35:15.075Z,101126.50
2022-08-05T02:38:25.431Z,101124.81
2022-08-05T02:41:42.991Z,101124.31
2022-08-05T02:45:00.159Z,101127.13
2022-08-05T02:48:12.267Z,101107.44
2022-08-05T02:51:18.403Z,101097.31
2022-08-05T02:54:36.844Z,101108.03
2022-08-05T02:58:11.120Z,101140.66
2022-08-05T03:01:07.583Z,101184.81
2022-08-05T03:04:16.791Z,101163.13
2022-08-05T03:08:00.612Z,101137.31
2022-08-05T03:11:53.367Z,101118.78
2022-08-05T03:14:13.461Z,101117.09
2022-08-05T03:17:17.724Z,101076.09
2022-08-05T03:20:26.436Z,101053.59
2022-08-05T03:23:31.187Z,101029.41
2022-08-05T03:26:38.694Z,101029.41
2022-08-05T03:29:45.343Z,101055.84
2022-08-05T03:33:07.717Z,101061.47
2022-08-05T03:36:13.894Z,101049.41
2022-08-05T03:39:20.030Z,101058.16
2022-08-05T03:42:32.171Z,101060.97
2022-08-05T03:45:58.022Z,101069.41
2022-08-05T03:49:01.873Z,101075.03
2022-08-05T03:52:49.156Z,101067.72
2022-08-05T03:56:05.165Z,101070.53
2022-08-05T03:59:10.604Z,101065.72
2022-08-05T04:02:17.349Z,101071.59
2022-08-05T04:05:40.632Z,101076.09
2022-08-05T04:08:48.529Z,101081.69
2022-08-05T04:11:52.898Z,101076.09
2022-08-05T04:14:57.756Z,101082.84
2022-08-05T04:18:07.206Z,101086.47
2022-08-05T04:21:11.923Z,101103.66
2022-08-05T04:24:25.082Z,101106.47
2022-08-05T04:27:41.760Z,101134.59
2022-08-05T04:30:46.417Z,101143.03
2022-08-05T04:34:17.734Z,101149.81
2022-08-05T04:37:15.651Z,101149.81
2022-08-05T04:40:22.113Z,101138.56
2022-08-05T04:43:26.040Z,101142.50
2022-08-05T04:46:29.919Z,101140.00
2022-08-05T04:50:01.138Z,101152.06
2022-08-05T04:52:57.444Z,101164.44
2022-08-05T04:56:33.628Z,101172.88
2022-08-05T04:59:36.636Z,101198.19
2022-08-05T05:02:44.558Z,101190.91
2022-08-05T05:06:39.382Z,101208.09
2022-08-05T05:09:17.461Z,101199.97
2022-08-05T05:12:22.925Z,101196.63
2022-08-05T05:15:56.422Z,101192.66
2022-08-05T05:19:17.788Z,101193.81
2022-08-05T05:22:24.706Z,101194.94
2022-08-05T05:25:32.816Z,101198.91
2022-08-05T05:28:45.819Z,101202.53
2022-08-05T05:31:49.561Z,101197.22
2022-08-05T05:34:55.125Z,101206.78
2022-08-05T05:38:01.959Z,101207.66
2022-08-05T05:41:07.668Z,101212.41
2022-08-05T05:44:35.496Z,101198.66
2022-08-05T05:48:06.371Z,101212.72
2022-08-05T05:51:15.106Z,101214.72
2022-08-05T05:54:19.810Z,101206.28
2022-08-05T05:57:23.674Z,101211.38
2022-08-05T06:00:34.073Z,101211.38
2022-08-05T06:03:53.659Z,101217.00
2022-08-05T06:07:02.282Z,101211.13
2022-08-05T06:10:10.363Z,101212.25
2022-08-05T06:13:14.575Z,101202.38
2022-08-05T06:16:30.385Z,101199.19
2022-08-05T06:19:35.784Z,101204.94
2022-08-05T06:22:40.554Z,101189.88
2022-08-05T06:26:12.466Z,101189.97
2022-08-05T06:29:43.207Z,101184.41
2022-08-05T06:32:35.369Z,101183.06
2022-08-05T06:36:03.031Z,101193.53
2022-08-05T06:39:03.350Z,101203.97
2022-08-05T06:42:07.640Z,101189.41
2022-08-05T06:45:20.720Z,101185.22
2022-08-05T06:48:54.526Z,101184.69
2022-08-05T06:51:50.540Z,101202.00
2022-08-05T06:54:55.214Z,101198.53
2022-08-05T06:58:19.734Z,101185.00
2022-08-05T07:01:23.544Z,101182.38
2022-08-05T07:04:32.956Z,101184.53
2022-08-05T07:07:43.282Z,101174.34
2022-08-05T07:10:52.729Z,101159.41
2022-08-05T07:14:28.918Z,101164.41
2022-08-05T07:18:08.196Z,101179.53
2022-08-05T07:21:04.805Z,101190.47
2022-08-05T07:24:11.388Z,101200.25
2022-08-05T07:27:15.389Z,101207.53
2022-08-05T07:30:24.331Z,101221.56
2022-08-05T07:33:37.062Z,101235.63
2022-08-05T07:36:43.026Z,101240.09
2022-08-05T07:40:04.545Z,101237.31
2022-08-05T07:43:20.250Z,101258.09
2022-08-05T07:46:26.363Z,101264.56
2022-08-05T07:49:30.429Z,101262.88
2022-08-05T07:52:39.729Z,101264.56
2022-08-05T07:56:38.780Z,101262.06
2022-08-05T07:59:08.642Z,101273.00
2022-08-05T08:02:15.732Z,101273.28
2022-08-05T08:05:21.350Z,101272.13
2022-08-05T08:08:26.519Z,101290.97
2022-08-05T08:11:47.529Z,101291.81
2022-08-05T08:14:54.510Z,101295.75
2022-08-05T08:17:58.293Z,101278.91
2022-08-05T08:21:09.766Z,101261.19
2022-08-05T08:24:21.001Z,101270.50
2022-08-05T08:27:47.738Z,101273.28
2022-08-05T08:30:54.909Z,101270.50
2022-08-05T08:33:59.178Z,101266.81
2022-08-05T08:37:05.336Z,101267.69
2022-08-05T08:40:11.997Z,101262.88
2022-08-05T08:45:17.126Z,101246.34
2022-08-05T08:46:43.513Z,101250.81
2022-08-05T08:50:14.609Z,101246.34
2022-08-05T08:53:17.821Z,101254.75
2022-08-05T08:56:27.018Z,101260.38
2022-08-05T08:59:33.633Z,101266.00
2022-08-05T09:02:38.513Z,101271.63
2022-08-05T09:06:08.700Z,101274.41
2022-08-05T09:09:07.433Z,101271.63
2022-08-05T09:12:19.985Z,101271.63
2022-08-05T09:15:25.730Z,101284.53
2022-08-05T09:18:30.162Z,101277.22
2022-08-05T09:22:22.326Z,101266.81
2022-08-05T09:24:59.702Z,101270.50
2022-08-05T09:28:20.985Z,101273.28
2022-08-05T09:32:39.618Z,101266.81
2022-08-05T09:34:50.857Z,101267.69
2022-08-05T09:38:12.375Z,101260.38
2022-08-05T09:41:20.174Z,101262.06
2022-08-05T09:44:39.645Z,101268.81
2022-08-05T09:47:55.215Z,101266.81
2022-08-05T09:51:01.952Z,101282.84
2022-08-05T09:54:08.528Z,101277.22
2022-08-05T09:57:35.168Z,101270.75
2022-08-05T10:00:40.791Z,101276.38
2022-08-05T10:03:59.365Z,101277.22
2022-08-05T10:07:19.712Z,101278.34
2022-08-05T10:10:28.198Z,101287.34
2022-08-05T10:13:45.817Z,101278.34
2022-08-05T10:16:56.509Z,101285.09
2022-08-05T10:20:04.135Z,101291.28
2022-08-05T10:23:34.062Z,101293.22
2022-08-05T10:26:48.943Z,101294.09
2022-08-05T10:30:41.931Z,101304.75
2022-08-05T10:33:23.313Z,101307.56
2022-08-05T10:36:27.388Z,101305.94
2022-08-05T10:39:59.483Z,101308.72
2022-08-05T10:43:11.167Z,101319.97
2022-08-05T10:46:18.076Z,101309.03
2022-08-05T10:49:27.399Z,101306.22
2022-08-05T10:52:49.566Z,101313.78
2022-08-05T10:56:14.887Z,101319.41
2022-08-05T11:00:02.570Z,101318.28
2022-08-05T11:03:25.119Z,101318.34
2022-08-05T11:06:33.979Z,101314.16
2022-08-05T11:09:46.113Z,101317.88
2022-08-05T11:12:55.251Z,101325.75
2022-08-05T11:16:23.299Z,101333.66
2022-08-05T11:20:17.031Z,101328.84
2022-08-05T11:24:04.326Z,101318.81
2022-08-05T11:27:37.081Z,101329.75
2022-08-05T11:31:57.877Z,101342.09
2022-08-05T11:34:54.462Z,101348.56
2022-08-05T11:38:29.693Z,101374.59
2022-08-05T11:41:54.346Z,101386.34
2022-08-05T11:44:53.928Z,101384.00
2022-08-05T11:47:58.811Z,101387.38
2022-08-05T11:51:03.212Z,101405.34
2022-08-05T11:54:07.534Z,101422.22
2022-08-05T11:57:26.019Z,101443.84
2022-08-05T12:00:32.535Z,101457.34
2022-08-05T12:03:44.726Z,101462.94
2022-08-05T12:07:01.772Z,101462.66
2022-08-05T12:10:11.565Z,101480.06
2022-08-05T12:13:47.946Z,101472.78
2022-08-05T12:16:45.539Z,101488.78
2022-08-05T12:20:25.918Z,101491.59
2022-08-05T12:23:16.088Z,101476.69
2022-08-05T12:26:19.976Z,101464.94
2022-08-05T12:29:27.318Z,101474.19
2022-08-05T12:32:33.147Z,101459.31
2022-08-05T12:35:39.874Z,101435.16
2022-08-05T12:38:46.946Z,101437.97
2022-08-05T12:41:50.926Z,101437.97
2022-08-05T12:45:08.890Z,101443.59
2022-08-05T12:48:27.023Z,101444.72
2022-08-05T12:52:12.471Z,101459.91
2022-08-05T12:54:57.695Z,101470.00
2022-08-05T12:58:38.434Z,101467.78
2022-08-05T13:02:03.461Z,101464.97
2022-08-05T13:04:54.799Z,101471.75
2022-08-05T13:08:01.046Z,101477.66
2022-08-05T13:11:05.123Z,101476.78
2022-08-05T13:14:19.554Z,101472.88
2022-08-05T13:17:32.064Z,101472.88
2022-08-05T13:20:46.041Z,101479.59
2022-08-05T13:23:52.173Z,101466.72
2022-08-05T13:26:56.141Z,101469.53
2022-08-05T13:30:34.106Z,101475.13
2022-08-05T13:34:21.873Z,101475.13
2022-08-05T13:36:50.692Z,101474.28
2022-08-05T13:40:15.164Z,101467.84
2022-08-05T13:43:21.749Z,101461.38
2022-08-05T13:46:38.050Z,101479.06
2022-08-05T13:49:54.148Z,101470.66
2022-08-05T13:52:57.938Z,101472.59
2022-08-05T13:56:02.442Z,101471.19
2022-08-05T13:59:20.454Z,101480.75
2022-08-05T14:02:26.699Z,101483.56
2022-08-05T14:06:24.495Z,101477.94
2022-08-05T14:09:00.123Z,101475.13
2022-08-05T14:12:17.518Z,101476.25
2022-08-05T14:16:04.312Z,101480.19
2022-08-05T14:18:46.013Z,101479.06
2022-08-05T14:22:09.800Z,101467.84
2022-08-05T14:25:21.993Z,101466.72
2022-08-05T14:28:27.803Z,101467.84
2022-08-05T14:32:03.542Z,101473.44
2022-08-05T14:34:56.984Z,101475.13
2022-08-05T14:38:02.909Z,101479.59
2022-08-05T14:41:08.246Z,101484.09
2022-08-05T14:44:20.672Z,101488.03
2022-08-05T14:48:03.669Z,101502.06
2022-08-05T14:50:49.621Z,101493.66
2022-08-05T14:54:26.283Z,101487.50
2022-08-05T14:57:18.527Z,101483.00
2022-08-05T15:00:28.090Z,101501.53
2022-08-05T15:03:38.947Z,101495.06
2022-08-05T15:06:49.485Z,101495.06
2022-08-05T15:09:55.017Z,101506.28
2022-08-05T15:13:04.433Z,101505.47
2022-08-05T15:16:10.958Z,101522.31
2022-08-05T15:19:23.730Z,101517.53
2022-08-05T15:22:28.803Z,101513.91
2022-08-05T15:25:52.933Z,101519.50
2022-08-05T15:28:58.096Z,101519.22
2022-08-05T15:32:03.319Z,101516.41
2022-08-05T15:35:12.359Z,101517.25
2022-08-05T15:38:36.020Z,101524.84
2022-08-05T15:41:55.531Z,101524.00
2022-08-05T15:45:02.381Z,101527.34
2022-08-05T15:48:07.033Z,101533.56
2022-08-05T15:51:10.909Z,101530.75
2022-08-05T15:54:15.698Z,101530.75
2022-08-05T15:57:21.378Z,101527.09
2022-08-05T16:00:42.903Z,101537.47
2022-08-05T16:03:50.483Z,101535.81
2022-08-05T16:06:55.702Z,101523.72
2022-08-05T16:09:59.797Z,101521.78
2022-08-05T16:13:05.652Z,101524.00
2022-08-05T16:16:10.835Z,101522.31
2022-08-05T16:19:19.197Z,101523.16
2022-08-05T16:22:34.095Z,101529.63
2022-08-05T16:25:38.758Z,101528.75
2022-08-05T16:28:44.133Z,101533.22
2022-08-05T16:31:56.275Z,101525.63
2022-08-05T16:35:01.243Z,101526.75
2022-08-05T16:38:18.752Z,101533.53
2022-08-05T16:42:14.978Z,101533.81
2022-08-05T16:44:57.043Z,101533.81
2022-08-05T16:48:02.917Z,101538.56
2022-08-05T16:51:09.653Z,101555.44
2022-08-05T16:54:17.430Z,101568.34
2022-08-05T16:57:53.487Z,101572.84
2022-08-05T17:00:50.143Z,101574.50
2022-08-05T17:03:54.169Z,101579.00
2022-08-05T17:07:01.310Z,101579.81
2022-08-05T17:10:05.953Z,101577.88
2022-08-05T17:13:16.760Z,101579.00
2022-08-05T17:16:32.646Z,101580.69
2022-08-05T17:19:37.544Z,101591.06
2022-08-05T17:22:41.288Z,101595.84
2022-08-05T17:25:45.646Z,101599.78
2022-08-05T17:28:50.819Z,101607.09
2022-08-05T17:31:58.383Z,101607.09
2022-08-05T17:35:02.987Z,101611.00
2022-08-05T17:38:08.639Z,101618.31
2022-08-05T17:42:16.926Z,101619.44
2022-08-05T17:44:36.272Z,101622.25
2022-08-05T17:47:41.440Z,101633.47
2022-08-05T17:50:45.914Z,101635.75
2022-08-05T17:53:50.832Z,101636.88
2022-08-05T17:56:58.701Z,101646.16
2022-08-05T18:00:04.982Z,101650.91
2022-08-05T18:03:11.045Z,101663.31
2022-08-05T18:06:15.249Z,101667.75
2022-08-05T18:09:19.355Z,101672.81
2022-08-05T18:12:24.240Z,101672.81
2022-08-05T18:15:28.442Z,101671.16
2022-08-05T18:18:39.977Z,101691.91
2022-08-05T18:22:09.324Z,101689.41
2022-08-05T18:25:08.327Z,101695.31
2022-08-05T18:28:16.361Z,101702.88
2022-08-05T18:31:20.691Z,101707.66
2022-08-05T18:34:41.085Z,101720.03
2022-08-05T18:37:46.639Z,101721.16
2022-08-05T18:41:55.810Z,101730.72
2022-08-05T18:44:15.532Z,101733.81
2022-08-05T18:47:38.793Z,101737.75
2022-08-05T18:52:02.800Z,101740.84
2022-08-05T18:54:25.664Z,101743.09
2022-08-05T18:57:50.186Z,101739.72
2022-08-05T19:00:53.224Z,101754.91
2022-08-05T19:03:57.072Z,101753.22
2022-08-05T19:07:02.199Z,101759.94
2022-08-05T19:10:11.132Z,101765.03
2022-08-05T19:13:16.279Z,101783.00
2022-08-05T19:16:25.448Z,101776.84
2022-08-05T19:19:36.938Z,101783.00
2022-08-05T19:22:51.939Z,101788.03
2022-08-05T19:26:01.708Z,101789.47
2022-08-05T19:29:07.180Z,101790.59
2022-08-05T19:32:11.354Z,101798.72
2022-08-05T19:35:15.645Z,101799.88
2022-08-05T19:38:26.503Z,101809.41
2022-08-05T19:42:05.783Z,101809.97
2022-08-05T19:44:55.333Z,101816.97
2022-08-05T19:47:59.468Z,101820.06
2022-08-05T19:51:03.296Z,101819.53
2022-08-05T19:54:21.851Z,101835.78
2022-08-05T19:57:47.585Z,101832.44
2022-08-05T20:00:56.304Z,101844.78
2022-08-05T20:04:00.810Z,101848.16
2022-08-05T20:07:10.430Z,101855.16
2022-08-05T20:10:22.405Z,101861.63
2022-08-05T20:13:54.886Z,101862.16
2022-08-05T20:16:52.237Z,101863.31
2022-08-05T20:19:58.625Z,101865.53
2022-08-05T20:23:04.219Z,101870.59
2022-08-05T20:26:16.485Z,101869.78
2022-08-05T20:29:27.373Z,101871.16
2022-08-05T20:32:31.665Z,101872.28
2022-08-05T20:35:45.358Z,101879.00
2022-08-05T20:38:53.343Z,101877.34
2022-08-05T20:41:59.935Z,101885.19
2022-08-05T20:45:05.226Z,101887.44
2022-08-05T20:48:09.521Z,101892.22
2022-08-05T20:51:13.305Z,101903.44
2022-08-05T20:54:19.517Z,101908.75
2022-08-05T20:57:43.586Z,101919.13
2022-08-05T21:00:54.533Z,101915.75
2022-08-05T21:03:58.813Z,101931.75
2022-08-05T21:07:02.829Z,101932.03
2022-08-05T21:10:09.341Z,101936.22
2022-08-05T21:13:46.933Z,101939.03
2022-08-05T21:16:42.986Z,101936.50
2022-08-05T21:19:50.357Z,101929.47
2022-08-05T21:22:54.436Z,101933.41
2022-08-05T21:25:58.661Z,101941.25
2022-08-05T21:29:04.557Z,101940.41
2022-08-05T21:32:08.537Z,101945.16
2022-08-05T21:35:29.538Z,101941.78
2022-08-05T21:38:38.673Z,101942.88
2022-08-05T21:41:52.391Z,101943.16
2022-08-05T21:44:58.184Z,101939.53
2022-08-05T21:48:01.845Z,101949.06
2022-08-05T21:52:15.928Z,101945.97
2022-08-05T21:54:34.707Z,101952.41
2022-08-05T21:57:42.754Z,101944.28
2022-08-05T22:00:51.330Z,101940.63
2022-08-05T22:03:56.119Z,101948.47
2022-08-05T22:06:59.963Z,101955.22
2022-08-05T22:10:04.325Z,101946.22
2022-08-05T22:13:09.129Z,101955.75
2022-08-05T22:16:41.664Z,101963.31
2022-08-05T22:20:01.394Z,101950.44
2022-08-05T22:24:01.815Z,101955.47
2022-08-05T22:27:10.994Z,101958.53
2022-08-05T22:30:20.306Z,101970.84
2022-08-05T22:33:57.699Z,101966.41
2022-08-05T22:36:50.274Z,101962.16
2022-08-05T22:39:55.778Z,101972.56
2022-08-05T22:43:00.567Z,101976.47
2022-08-05T22:46:12.232Z,101970.84
2022-08-05T22:50:17.948Z,101977.88
2022-08-05T22:52:43.800Z,101971.16
2022-08-05T22:55:56.762Z,101970.63
2022-08-05T22:59:02.857Z,101978.19
2022-08-05T23:02:08.894Z,101985.78
2022-08-05T23:05:15.190Z,101983.25
2022-08-05T23:08:18.964Z,101986.34
2022-08-05T23:11:22.787Z,101983.81
2022-08-05T23:14:31.971Z,101986.88
2022-08-05T23:17:59.880Z,101993.88
2022-08-05T23:21:01.685Z,101988.81
2022-08-05T23:27:24.155Z,101990.47
2022-08-05T23:30:33.266Z,101989.88
2022-08-05T23:34:05.545Z,101992.13
2022-08-05T23:37:08.181Z,102005.31
2022-08-05T23:40:15.436Z,102003.91
2022-08-05T23:43:24.857Z,102008.66
2022-08-05T23:46:40.543Z,102019.03
2022-08-05T23:49:46.953Z,102015.66
2022-08-05T23:52:51.656Z,102023.47
2022-08-05T23:55:57.623Z,102028.25
2022-08-05T23:59:04.493Z,102030.22
